Flight Track Log - Related Links

Times and Time Zones

All times are in EDT time to prevent confusion due to time zone crossing. See the ASQ4209 flight status page for this flight to view local times or setup timezone preferences in your user account.

Time Position Orientation Groundspeed Altitude Reporting Facility
EDT Latitude Longitude Course Direction KTS MPH feet Rate Location/Type
Tue 15:58:50 35.8686 -78.8114 11° North 163 188 1,000  Level Washington Center
Tue 15:59:08 35.8600 -78.8239 230° Southwest 170 196 1,600 2,204 Climbing Washington Center
Tue 16:00:28 35.8436 -78.8922 254° West 230 265 4,600 2,614 Climbing Washington Center
Tue 16:01:00 36.1105 -78.6895 39° Northeast  Level FlightAware Approximate
Tue 16:01:28 35.8858 -78.9453 314° West 222 255 7,700  Level Washington Center
Tue 16:02:00 36.1911 -78.6586 19° North  Level FlightAware Approximate
Tue 16:02:26 35.9414 -78.9733 338° Northwest 207 238 9,900  Level Washington Center
Tue 16:03:00 36.2724 -78.6259 15° North  Level FlightAware Approximate
Tue 16:03:27 36.0181 -78.9150 32° Northeast 239 275 10,800  Level Washington Center
Tue 16:04:00 36.3551 -78.5987 11° North  Level FlightAware Approximate
Tue 16:04:28 36.1056 -78.8467 32° Northeast 293 337 12,600  Level Washington Center
Tue 16:05:26 36.1994 -78.7683 34° Northeast 357 411 14,800 1,815 Climbing Washington Center
Tue 16:06:27 36.2869 -78.6969 33° Northeast 372 428 16,200 1,475 Climbing Washington Center
Tue 16:07:28 36.3786 -78.6233 33° Northeast 378 435 17,800 1,289 Climbing Washington Center
Tue 16:08:28 36.4653 -78.5750 24° Northeast 378 435 18,800 1,220 Climbing Washington Center
Tue 16:09:26 36.5706 -78.5378 16° North 378 435 20,200 1,462 Climbing Washington Center
Tue 16:10:27 36.6758 -78.5003 16° North 384 442 21,700 1,279 Climbing Washington Center
Tue 16:11:28 36.7772 -78.4469 23° Northeast 384 442 22,800 1,160 Climbing Washington Center
Tue 16:12:26 36.8772 -78.3675 32° Northeast 396 456 24,000 1,361 Climbing Washington Center
Tue 16:13:27 36.9814 -78.2828 33° Northeast 403 464 25,500 1,279 Climbing Washington Center
Tue 16:14:28 37.0792 -78.2006 34° Northeast 415 478 26,600 738 Climbing Washington Center
Tue 16:15:29 37.1661 -78.1303 33° Northeast 422 486 27,000 203 Climbing Washington Center
Tue 16:16:26 37.2722 -78.0425 33° Northeast 434 499 27,000  Level Washington Center
Tue 16:17:27 37.3847 -77.9494 33° Northeast 452 520 27,000  Level Washington Center
Tue 16:18:27 37.4950 -77.8561 34° Northeast 471 542 27,000  Level Washington Center
Tue 16:19:27 37.6072 -77.7597 34° Northeast 477 549 27,000  Level Washington Center
Tue 16:20:28 37.7156 -77.6578 37° Northeast 477 549 27,000  Level Washington Center
Tue 16:21:26 37.8275 -77.5583 35° Northeast 483 556 27,000  Level Washington Center
Tue 16:22:27 37.9356 -77.4583 36° Northeast 483 556 27,000  Level Washington Center
Tue 16:23:28 38.0581 -77.3508 35° Northeast 483 556 27,000  Level Washington Center
Tue 16:24:26 38.1681 -77.2478 36° Northeast 481 554 27,000  Level Washington Center
Tue 16:25:26 38.2672 -77.1519 37° Northeast 492 566 27,000  Level Washington Center
Tue 16:26:27 38.3875 -77.0433 35° Northeast 486 559 27,000  Level Washington Center
Tue 16:27:28 38.4972 -76.9419 36° Northeast 481 554 27,000  Level Washington Center
Tue 16:28:26 38.6067 -76.8378 37° Northeast 481 554 27,000  Level Washington Center
Tue 16:29:27 38.7142 -76.7331 37° Northeast 481 554 27,000  Level Washington Center
Tue 16:30:28 38.8131 -76.6200 42° Northeast 481 554 27,000  Level Washington Center
Tue 16:31:28 38.9036 -76.5119 43° Northeast 481 554 27,000  Level Washington Center
Tue 16:32:26 39.0044 -76.3983 41° Northeast 481 554 27,000  Level Washington Center
Tue 16:33:26 39.1011 -76.2844 42° Northeast 481 554 27,000  Level Washington Center
Tue 16:34:27 39.2164 -76.1569 41° Northeast 475 547 27,000  Level Washington Center
Tue 16:35:27 39.3147 -76.0422 42° Northeast 480 552 27,000  Level Washington Center
Tue 16:36:27 39.4111 -75.9272 43° Northeast 480 552 27,000 -298 Level Washington Center
Tue 16:37:28 39.5092 -75.8122 42° Northeast 474 545 26,400 -1,210 Descending Washington Center
Tue 16:38:26 39.6031 -75.6992 43° Northeast 474 545 24,600 -2,118 Descending Washington Center
Tue 16:39:27 39.6969 -75.5889 42° Northeast 468 539 22,200 -2,380 Descending Washington Center
Tue 16:40:27 39.7886 -75.4753 44° Northeast 463 533 19,800 -2,182 Descending Washington Center
Tue 16:41:28 39.8697 -75.3778 43° Northeast 453 521 17,800 -2,067 Descending Washington Center
Tue 16:42:26 39.9547 -75.2747 43° Northeast 429 494 15,700 -2,186 Descending Washington Center
Tue 16:43:26 40.0358 -75.1769 43° Northeast 412 474 13,500 -2,083 Descending Washington Center
Tue 16:44:27 40.1125 -75.0842 43° Northeast 387 445 11,500 -1,600 Descending Washington Center
Tue 16:45:56 40.2167 -74.9500 45° Northeast 304 350 9,500 -1,329 Descending New York TRACON
Tue 16:46:56 40.2667 -74.8833 45° Northeast 288 331 8,200 -700 Descending New York TRACON
Tue 16:47:56 40.3333 -74.8000 44° Northeast 288 331 8,100 -500 Descending New York TRACON
Tue 16:48:56 40.3833 -74.7333 45° Northeast 288 331 7,200 -950 Descending New York TRACON
Tue 16:49:56 40.4500 -74.6667 37° Northeast 281 323 6,200 -550 Descending New York TRACON
Tue 16:50:56 40.5167 -74.6500 11° North 268 308 6,100 -53 Descending New York TRACON
Tue 16:51:50 40.5833 -74.6333 11° North 272 313 6,100  Level New York TRACON
Tue 16:52:50 40.6500 -74.6000 21° North 271 312 6,100 -190 Level New York TRACON
Tue 16:53:56 40.7333 -74.5500 24° Northeast 276 318 5,700 -476 Descending New York TRACON
Tue 16:54:56 40.7833 -74.5000 37° Northeast 274 315 5,100 -300 Descending New York TRACON
Tue 16:55:56 40.8500 -74.4500 30° Northeast 275 316 5,100  Level New York TRACON
Tue 16:56:56 40.9167 -74.4000 30° Northeast 276 318 5,100  Level New York TRACON
Tue 16:57:56 40.9667 -74.3167 52° Northeast 288 331 5,100 -400 Level New York TRACON
Tue 16:58:56 40.9500 -74.2167 102° East 278 320 4,300 -500 Descending New York TRACON
Tue 16:59:56 40.9167 -74.1500 123° Southeast 231 266 4,100 -524 Descending New York TRACON
Tue 17:01:02 40.8667 -74.1000 143° Southeast 223 257 3,200 -750 Descending New York TRACON
Tue 17:01:56 40.8167 -74.0833 166° South 205 236 2,600 -667 Descending New York TRACON

Login

Don't have an account? Register now (free) for customized features, flight alerts, and more!